createdAt,value
2023-05-13T00:05:12.794Z,100.00
2023-05-13T00:10:37.780Z,100.00
2023-05-13T00:16:01.849Z,100.00
2023-05-13T00:21:29.814Z,100.00
2023-05-13T00:26:53.842Z,100.00
2023-05-13T00:32:24.893Z,100.00
2023-05-13T00:37:52.824Z,100.00
2023-05-13T00:43:16.805Z,100.00
2023-05-13T00:48:42.831Z,100.00
2023-05-13T00:54:10.850Z,100.00
2023-05-13T00:59:37.824Z,100.00
2023-05-13T01:05:14.853Z,100.00
2023-05-13T01:10:48.853Z,100.00
2023-05-13T01:16:19.859Z,100.00
2023-05-13T01:21:48.822Z,100.00
2023-05-13T01:27:14.869Z,100.00
2023-05-13T01:32:46.926Z,100.00
2023-05-13T01:38:15.899Z,100.00
2023-05-13T01:43:44.875Z,100.00
2023-05-13T01:49:09.841Z,100.00
2023-05-13T01:54:38.863Z,100.00
2023-05-13T02:00:05.885Z,100.00
2023-05-13T02:05:32.868Z,100.00
2023-05-13T02:11:07.848Z,100.00
2023-05-13T02:16:33.880Z,100.00
2023-05-13T02:21:58.858Z,100.00
2023-05-13T02:27:27.885Z,100.00
2023-05-13T02:32:52.895Z,100.00
2023-05-13T02:38:17.896Z,100.00
2023-05-13T02:43:45.881Z,100.00
2023-05-13T02:49:09.953Z,100.00
2023-05-13T02:54:34.898Z,100.00
2023-05-13T03:00:01.894Z,100.00
2023-05-13T03:05:29.105Z,100.00
2023-05-13T03:10:53.885Z,100.00
2023-05-13T03:16:21.988Z,100.00
2023-05-13T03:21:45.904Z,100.00
2023-05-13T03:27:10.957Z,100.00
2023-05-13T03:32:38.971Z,100.00
2023-05-13T03:38:03.913Z,100.00
2023-05-13T03:43:33.937Z,100.00
2023-05-13T03:49:04.912Z,100.00
2023-05-13T03:54:29.928Z,100.00
2023-05-13T03:59:54.946Z,100.00
2023-05-13T04:05:23.914Z,100.00
2023-05-13T04:10:48.983Z,100.00
2023-05-13T04:16:12.990Z,100.00
2023-05-13T04:21:41.931Z,100.00
2023-05-13T04:27:06.964Z,100.00
2023-05-13T04:32:32.066Z,100.00
2023-05-13T04:37:58.970Z,100.00
2023-05-13T04:43:23.967Z,100.00
2023-05-13T04:48:55.002Z,100.00
2023-05-13T04:54:22.941Z,100.00
2023-05-13T04:59:47.997Z,100.00
2023-05-13T05:05:12.965Z,100.00
2023-05-13T05:10:40.972Z,100.00
2023-05-13T05:16:06.978Z,100.00
2023-05-13T05:21:31.959Z,100.00
2023-05-13T05:27:01.022Z,100.00
2023-05-13T05:32:34.028Z,100.00
2023-05-13T05:37:58.985Z,100.00
2023-05-13T05:43:27.981Z,100.00
2023-05-13T05:48:53.979Z,100.00
2023-05-13T05:54:17.977Z,100.00
2023-05-13T05:59:45.986Z,100.00
2023-05-13T06:05:10.079Z,100.00
2023-05-13T06:10:36.015Z,100.00
2023-05-13T06:16:04.068Z,100.00
2023-05-13T06:21:28.982Z,100.00
2023-05-13T06:26:54.010Z,100.00
2023-05-13T06:32:29.244Z,100.00
2023-05-13T06:37:55.040Z,100.00
2023-05-13T06:43:21.027Z,100.00
2023-05-13T06:48:52.132Z,100.00
2023-05-13T06:54:17.010Z,100.00
2023-05-13T06:59:42.084Z,100.00
2023-05-13T07:05:11.301Z,100.00
2023-05-13T07:10:36.065Z,100.00
2023-05-13T07:16:00.059Z,100.00
2023-05-13T07:21:28.026Z,100.00
2023-05-13T07:26:52.035Z,100.00
2023-05-13T07:32:18.078Z,100.00
2023-05-13T07:37:46.052Z,100.00
2023-05-13T07:43:11.053Z,100.00
2023-05-13T07:48:35.057Z,100.00
2023-05-13T07:54:04.064Z,100.00
2023-05-13T07:59:29.066Z,100.00
2023-05-13T08:04:54.165Z,100.00
2023-05-13T08:10:22.297Z,100.00
2023-05-13T08:15:48.105Z,100.00
2023-05-13T08:21:12.093Z,100.00
2023-05-13T08:26:40.072Z,100.00
2023-05-13T08:32:11.286Z,100.00
2023-05-13T08:37:36.102Z,100.00
2023-05-13T08:43:04.116Z,100.00
2023-05-13T08:48:30.097Z,100.00
2023-05-13T08:53:55.303Z,100.00
2023-05-13T08:59:23.106Z,100.00
2023-05-13T09:04:49.133Z,100.00
2023-05-13T09:10:16.083Z,100.00
2023-05-13T09:15:44.364Z,100.00
2023-05-13T09:21:33.227Z,100.00
2023-05-13T09:26:58.116Z,100.00
2023-05-13T09:32:32.189Z,100.00
2023-05-13T09:37:58.116Z,100.00
2023-05-13T09:43:24.181Z,100.00
2023-05-13T09:48:54.618Z,100.00
2023-05-13T09:54:21.126Z,100.00
2023-05-13T09:59:46.127Z,100.00
2023-05-13T10:05:13.134Z,100.00
2023-05-13T10:10:47.373Z,100.00
2023-05-13T10:16:13.214Z,100.00
2023-05-13T10:21:43.141Z,100.00
2023-05-13T10:27:11.193Z,100.00
2023-05-13T10:32:36.214Z,100.00
2023-05-13T10:38:17.229Z,99.66
2023-05-13T10:43:44.186Z,100.00
2023-05-13T10:49:10.166Z,88.71
2023-05-13T10:54:39.167Z,96.02
2023-05-13T11:00:24.406Z,92.36
2023-05-13T11:05:49.214Z,89.03
2023-05-13T11:11:44.168Z,87.11
2023-05-13T11:17:26.227Z,94.67
2023-05-13T11:22:51.292Z,91.86
2023-05-13T11:28:16.179Z,95.77
2023-05-13T11:34:22.169Z,82.33
2023-05-13T11:39:49.212Z,95.36
2023-05-13T11:45:15.225Z,100.00
2023-05-13T11:50:43.214Z,94.77
2023-05-13T11:56:07.239Z,100.00
2023-05-13T12:01:32.239Z,97.20
2023-05-13T12:07:02.194Z,80.08
2023-05-13T12:12:28.198Z,91.43
2023-05-13T12:17:53.394Z,99.96
2023-05-13T12:23:21.218Z,96.54
2023-05-13T12:28:47.265Z,100.00
2023-05-13T12:34:18.278Z,98.23
2023-05-13T12:39:46.220Z,99.39
2023-05-13T12:45:11.231Z,100.00
2023-05-13T12:50:37.230Z,100.00
2023-05-13T12:56:04.269Z,100.00
2023-05-13T13:01:30.302Z,100.00
2023-05-13T13:06:54.272Z,100.00
2023-05-13T13:12:22.562Z,100.00
2023-05-13T13:17:46.302Z,100.00
2023-05-13T13:23:11.325Z,100.00
2023-05-13T13:28:39.312Z,100.00
2023-05-13T13:34:12.344Z,98.79
2023-05-13T13:39:37.293Z,88.22
2023-05-13T13:45:04.279Z,88.49
2023-05-13T13:50:29.326Z,80.94
2023-05-13T13:55:53.267Z,78.13
2023-05-13T14:01:21.327Z,66.02
2023-05-13T14:06:45.319Z,69.26
2023-05-13T14:12:10.326Z,64.59
2023-05-13T14:17:37.317Z,62.40
2023-05-13T14:23:05.063Z,57.59
2023-05-13T14:28:29.296Z,58.83
2023-05-13T14:34:03.674Z,56.89
2023-05-13T14:39:29.334Z,57.41
2023-05-13T14:44:53.493Z,56.83
2023-05-13T14:50:22.629Z,55.78
2023-05-13T14:55:46.330Z,57.97
2023-05-13T15:01:11.454Z,57.76
2023-05-13T15:06:38.313Z,56.64
2023-05-13T15:12:03.340Z,57.09
2023-05-13T15:17:27.442Z,62.00
2023-05-13T15:22:55.325Z,62.07
2023-05-13T15:28:20.325Z,63.93
2023-05-13T15:33:51.369Z,63.22
2023-05-13T15:39:19.368Z,61.62
2023-05-13T15:44:43.416Z,62.49
2023-05-13T15:50:08.369Z,61.57
2023-05-13T15:55:35.341Z,60.77
2023-05-13T16:01:00.429Z,60.67
2023-05-13T16:06:25.386Z,59.75
2023-05-13T16:11:53.387Z,60.00
2023-05-13T16:17:17.383Z,62.15
2023-05-13T16:22:44.395Z,62.19
2023-05-13T16:28:11.383Z,65.45
2023-05-13T16:33:43.410Z,74.50
2023-05-13T16:39:08.583Z,80.39
2023-05-13T16:44:35.414Z,86.57
2023-05-13T16:50:02.397Z,87.85
2023-05-13T16:55:27.411Z,88.32
2023-05-13T17:00:57.722Z,87.54
2023-05-13T17:06:23.420Z,93.72
2023-05-13T17:11:49.669Z,92.29
2023-05-13T17:17:16.453Z,87.79
2023-05-13T17:22:41.428Z,93.21
2023-05-13T17:28:06.473Z,100.00
2023-05-13T17:33:40.439Z,100.00
2023-05-13T17:39:05.429Z,100.00
2023-05-13T17:44:30.658Z,100.00
2023-05-13T17:49:58.443Z,100.00
2023-05-13T17:55:24.468Z,100.00
2023-05-13T18:00:49.494Z,100.00
2023-05-13T18:06:16.506Z,100.00
2023-05-13T18:11:41.678Z,100.00
2023-05-13T18:17:05.449Z,100.00
2023-05-13T18:22:33.479Z,100.00
2023-05-13T18:27:58.474Z,100.00
2023-05-13T18:33:23.478Z,100.00
2023-05-13T18:38:52.724Z,100.00
2023-05-13T18:44:17.529Z,100.00
2023-05-13T18:49:41.519Z,100.00
2023-05-13T18:55:12.538Z,100.00
2023-05-13T19:00:36.497Z,100.00
2023-05-13T19:06:01.493Z,100.00
2023-05-13T19:11:29.514Z,100.00
2023-05-13T19:16:54.522Z,100.00
2023-05-13T19:22:18.525Z,100.00
2023-05-13T19:27:46.617Z,100.00
2023-05-13T19:33:11.559Z,100.00
2023-05-13T19:38:36.557Z,100.00
2023-05-13T19:44:04.570Z,100.00
2023-05-13T19:49:29.559Z,100.00
2023-05-13T19:54:53.560Z,100.00
2023-05-13T20:00:22.711Z,100.00
2023-05-13T20:05:46.539Z,100.00
2023-05-13T20:11:11.559Z,100.00
2023-05-13T20:16:38.568Z,100.00
2023-05-13T20:22:03.518Z,100.00
2023-05-13T20:27:28.566Z,100.00
2023-05-13T20:33:03.599Z,100.00
2023-05-13T20:38:29.565Z,100.00
2023-05-13T20:43:53.576Z,100.00
2023-05-13T20:49:21.564Z,100.00
2023-05-13T20:54:45.618Z,100.00
2023-05-13T21:00:10.543Z,100.00
2023-05-13T21:05:37.778Z,100.00
2023-05-13T21:11:04.558Z,100.00
2023-05-13T21:16:30.778Z,100.00
2023-05-13T21:21:58.634Z,100.00
2023-05-13T21:27:23.715Z,100.00
2023-05-13T21:32:48.773Z,100.00
2023-05-13T21:38:15.568Z,100.00
2023-05-13T21:43:40.628Z,100.00
2023-05-13T21:49:05.760Z,100.00
2023-05-13T21:54:33.609Z,100.00
2023-05-13T21:59:57.576Z,100.00
2023-05-13T22:05:23.792Z,100.00
2023-05-13T22:10:50.618Z,100.00
2023-05-13T22:16:16.751Z,100.00
2023-05-13T22:21:40.604Z,100.00
2023-05-13T22:27:08.937Z,100.00
2023-05-13T22:32:32.682Z,100.00
2023-05-13T22:37:59.621Z,100.00
2023-05-13T22:43:27.651Z,100.00
2023-05-13T22:48:52.630Z,100.00
2023-05-13T22:54:17.628Z,100.00
2023-05-13T22:59:45.658Z,100.00
2023-05-13T23:05:09.632Z,100.00
2023-05-13T23:10:34.634Z,100.00
2023-05-13T23:16:01.671Z,100.00
2023-05-13T23:21:26.629Z,100.00
2023-05-13T23:26:51.825Z,100.00
2023-05-13T23:32:19.665Z,100.00
2023-05-13T23:37:43.631Z,100.00
2023-05-13T23:43:08.639Z,100.00
2023-05-13T23:48:37.660Z,100.00
2023-05-13T23:54:02.672Z,100.00
2023-05-13T23:59:26.696Z,100.00
